sensor_id;sensor_type;location;lat;lon;timestamp;P1;durP1;ratioP1;P2;durP2;ratioP2
63536;SDS011;49686;51.880;5.632;2022-08-19T00:01:28;16.02;;;13.80;;
63536;SDS011;49686;51.880;5.632;2022-08-19T00:04:04;16.85;;;13.40;;
63536;SDS011;49686;51.880;5.632;2022-08-19T00:06:33;16.48;;;14.25;;
63536;SDS011;49686;51.880;5.632;2022-08-19T00:11:32;16.80;;;14.32;;
63536;SDS011;49686;51.880;5.632;2022-08-19T00:14:02;20.92;;;15.63;;
63536;SDS011;49686;51.880;5.632;2022-08-19T00:16:31;18.27;;;15.52;;
63536;SDS011;49686;51.880;5.632;2022-08-19T00:18:59;20.00;;;15.57;;
63536;SDS011;49686;51.880;5.632;2022-08-19T00:21:26;18.70;;;15.50;;
63536;SDS011;49686;51.880;5.632;2022-08-19T00:23:53;18.65;;;15.07;;
63536;SDS011;49686;51.880;5.632;2022-08-19T00:28:48;16.00;;;13.65;;
63536;SDS011;49686;51.880;5.632;2022-08-19T00:31:15;15.18;;;13.57;;
63536;SDS011;49686;51.880;5.632;2022-08-19T00:33:44;18.10;;;14.65;;
63536;SDS011;49686;51.880;5.632;2022-08-19T00:36:11;17.27;;;14.57;;
63536;SDS011;49686;51.880;5.632;2022-08-19T00:38:39;17.45;;;13.77;;
63536;SDS011;49686;51.880;5.632;2022-08-19T00:41:06;18.07;;;14.53;;
63536;SDS011;49686;51.880;5.632;2022-08-19T00:43:35;16.80;;;13.65;;
63536;SDS011;49686;51.880;5.632;2022-08-19T00:46:02;17.30;;;13.65;;
63536;SDS011;49686;51.880;5.632;2022-08-19T00:48:30;16.48;;;14.68;;
63536;SDS011;49686;51.880;5.632;2022-08-19T00:50:59;17.27;;;14.27;;
63536;SDS011;49686;51.880;5.632;2022-08-19T00:53:27;14.32;;;12.82;;
63536;SDS011;49686;51.880;5.632;2022-08-19T00:55:58;18.40;;;14.27;;
63536;SDS011;49686;51.880;5.632;2022-08-19T00:58:28;17.30;;;14.23;;
63536;SDS011;49686;51.880;5.632;2022-08-19T01:00:59;16.42;;;14.13;;
63536;SDS011;49686;51.880;5.632;2022-08-19T01:03:26;16.52;;;14.00;;
63536;SDS011;49686;51.880;5.632;2022-08-19T01:05:53;18.98;;;14.68;;
63536;SDS011;49686;51.880;5.632;2022-08-19T01:08:22;17.10;;;14.33;;
63536;SDS011;49686;51.880;5.632;2022-08-19T01:10:50;17.42;;;14.02;;
63536;SDS011;49686;51.880;5.632;2022-08-19T01:13:20;17.75;;;13.50;;
63536;SDS011;49686;51.880;5.632;2022-08-19T01:15:55;18.33;;;14.32;;
63536;SDS011;49686;51.880;5.632;2022-08-19T01:18:30;17.13;;;13.55;;
63536;SDS011;49686;51.880;5.632;2022-08-19T01:21:05;16.88;;;13.05;;
63536;SDS011;49686;51.880;5.632;2022-08-19T01:23:37;14.07;;;12.55;;
63536;SDS011;49686;51.880;5.632;2022-08-19T01:26:05;18.23;;;12.77;;
63536;SDS011;49686;51.880;5.632;2022-08-19T01:28:33;17.07;;;13.40;;
63536;SDS011;49686;51.880;5.632;2022-08-19T01:31:09;16.15;;;13.45;;
63536;SDS011;49686;51.880;5.632;2022-08-19T01:33:53;14.80;;;13.02;;
63536;SDS011;49686;51.880;5.632;2022-08-19T01:36:23;15.60;;;12.65;;
63536;SDS011;49686;51.880;5.632;2022-08-19T01:38:52;16.20;;;12.82;;
63536;SDS011;49686;51.880;5.632;2022-08-19T01:41:24;12.73;;;11.32;;
63536;SDS011;49686;51.880;5.632;2022-08-19T01:43:54;13.75;;;11.68;;
63536;SDS011;49686;51.880;5.632;2022-08-19T01:46:42;14.85;;;12.20;;
63536;SDS011;49686;51.880;5.632;2022-08-19T01:49:09;17.05;;;13.35;;
63536;SDS011;49686;51.880;5.632;2022-08-19T01:51:37;20.27;;;15.88;;
63536;SDS011;49686;51.880;5.632;2022-08-19T01:54:09;22.90;;;16.33;;
63536;SDS011;49686;51.880;5.632;2022-08-19T01:56:37;20.88;;;15.77;;
63536;SDS011;49686;51.880;5.632;2022-08-19T01:59:05;21.52;;;15.73;;
63536;SDS011;49686;51.880;5.632;2022-08-19T02:01:37;20.80;;;15.50;;
63536;SDS011;49686;51.880;5.632;2022-08-19T02:04:03;22.45;;;16.42;;
63536;SDS011;49686;51.880;5.632;2022-08-19T02:06:30;23.58;;;17.67;;
63536;SDS011;49686;51.880;5.632;2022-08-19T02:08:58;24.40;;;18.00;;
63536;SDS011;49686;51.880;5.632;2022-08-19T02:11:27;26.65;;;19.05;;
63536;SDS011;49686;51.880;5.632;2022-08-19T02:13:54;25.20;;;17.75;;
63536;SDS011;49686;51.880;5.632;2022-08-19T02:16:23;24.15;;;16.98;;
63536;SDS011;49686;51.880;5.632;2022-08-19T02:18:50;26.05;;;18.83;;
63536;SDS011;49686;51.880;5.632;2022-08-19T02:21:18;24.13;;;18.30;;
63536;SDS011;49686;51.880;5.632;2022-08-19T02:23:49;23.55;;;17.45;;
63536;SDS011;49686;51.880;5.632;2022-08-19T02:26:16;24.63;;;18.50;;
63536;SDS011;49686;51.880;5.632;2022-08-19T02:28:45;22.15;;;17.40;;
63536;SDS011;49686;51.880;5.632;2022-08-19T02:31:18;23.45;;;16.40;;
63536;SDS011;49686;51.880;5.632;2022-08-19T02:33:46;19.13;;;14.85;;
63536;SDS011;49686;51.880;5.632;2022-08-19T02:36:15;21.63;;;15.45;;
63536;SDS011;49686;51.880;5.632;2022-08-19T02:38:46;19.98;;;15.90;;
63536;SDS011;49686;51.880;5.632;2022-08-19T02:41:22;22.13;;;15.65;;
63536;SDS011;49686;51.880;5.632;2022-08-19T02:43:54;20.20;;;16.08;;
63536;SDS011;49686;51.880;5.632;2022-08-19T02:46:41;19.98;;;15.15;;
63536;SDS011;49686;51.880;5.632;2022-08-19T02:49:11;23.17;;;15.70;;
63536;SDS011;49686;51.880;5.632;2022-08-19T02:51:40;18.17;;;15.07;;
63536;SDS011;49686;51.880;5.632;2022-08-19T02:54:09;18.42;;;13.93;;
63536;SDS011;49686;51.880;5.632;2022-08-19T02:56:38;17.15;;;13.27;;
63536;SDS011;49686;51.880;5.632;2022-08-19T03:01:37;15.70;;;12.55;;
63536;SDS011;49686;51.880;5.632;2022-08-19T03:04:05;17.27;;;11.52;;
63536;SDS011;49686;51.880;5.632;2022-08-19T03:06:37;17.00;;;12.82;;
63536;SDS011;49686;51.880;5.632;2022-08-19T03:09:05;17.67;;;13.48;;
63536;SDS011;49686;51.880;5.632;2022-08-19T03:11:32;21.58;;;14.55;;
63536;SDS011;49686;51.880;5.632;2022-08-19T03:13:59;19.88;;;15.15;;
63536;SDS011;49686;51.880;5.632;2022-08-19T03:16:30;20.98;;;15.35;;
63536;SDS011;49686;51.880;5.632;2022-08-19T03:19:07;22.40;;;15.68;;
63536;SDS011;49686;51.880;5.632;2022-08-19T03:21:36;20.63;;;14.77;;
63536;SDS011;49686;51.880;5.632;2022-08-19T03:24:04;21.25;;;14.43;;
63536;SDS011;49686;51.880;5.632;2022-08-19T03:26:33;21.95;;;16.40;;
63536;SDS011;49686;51.880;5.632;2022-08-19T03:29:05;18.08;;;12.52;;
63536;SDS011;49686;51.880;5.632;2022-08-19T03:31:38;26.60;;;15.13;;
63536;SDS011;49686;51.880;5.632;2022-08-19T03:34:19;43.20;;;15.18;;
63536;SDS011;49686;51.880;5.632;2022-08-19T03:36:47;26.27;;;15.95;;
63536;SDS011;49686;51.880;5.632;2022-08-19T03:39:16;18.63;;;15.07;;
63536;SDS011;49686;51.880;5.632;2022-08-19T03:41:44;18.80;;;15.88;;
63536;SDS011;49686;51.880;5.632;2022-08-19T03:44:14;20.35;;;15.02;;
63536;SDS011;49686;51.880;5.632;2022-08-19T03:46:46;22.02;;;16.30;;
63536;SDS011;49686;51.880;5.632;2022-08-19T03:49:15;19.40;;;15.73;;
63536;SDS011;49686;51.880;5.632;2022-08-19T03:51:44;17.88;;;15.15;;
63536;SDS011;49686;51.880;5.632;2022-08-19T03:54:14;19.45;;;14.93;;
63536;SDS011;49686;51.880;5.632;2022-08-19T03:56:44;21.27;;;16.40;;
63536;SDS011;49686;51.880;5.632;2022-08-19T03:59:14;18.95;;;15.23;;
63536;SDS011;49686;51.880;5.632;2022-08-19T04:01:43;17.70;;;13.75;;
63536;SDS011;49686;51.880;5.632;2022-08-19T04:04:12;19.00;;;14.05;;
63536;SDS011;49686;51.880;5.632;2022-08-19T04:06:38;19.65;;;14.07;;
63536;SDS011;49686;51.880;5.632;2022-08-19T04:09:09;20.90;;;15.20;;
63536;SDS011;49686;51.880;5.632;2022-08-19T04:11:38;21.20;;;16.30;;
63536;SDS011;49686;51.880;5.632;2022-08-19T04:14:09;25.10;;;17.58;;
63536;SDS011;49686;51.880;5.632;2022-08-19T04:16:37;25.02;;;18.55;;
63536;SDS011;49686;51.880;5.632;2022-08-19T04:19:04;22.10;;;16.45;;
63536;SDS011;49686;51.880;5.632;2022-08-19T04:21:34;20.05;;;16.13;;
63536;SDS011;49686;51.880;5.632;2022-08-19T04:24:01;23.15;;;16.58;;
63536;SDS011;49686;51.880;5.632;2022-08-19T04:26:30;44.65;;;18.25;;
63536;SDS011;49686;51.880;5.632;2022-08-19T04:28:59;72.50;;;17.70;;
63536;SDS011;49686;51.880;5.632;2022-08-19T04:31:28;196.90;;;19.33;;
63536;SDS011;49686;51.880;5.632;2022-08-19T04:33:57;189.48;;;20.15;;
63536;SDS011;49686;51.880;5.632;2022-08-19T04:36:26;131.63;;;18.80;;
63536;SDS011;49686;51.880;5.632;2022-08-19T04:41:29;167.80;;;17.48;;
63536;SDS011;49686;51.880;5.632;2022-08-19T04:43:56;93.45;;;15.98;;
63536;SDS011;49686;51.880;5.632;2022-08-19T04:46:30;93.40;;;13.77;;
63536;SDS011;49686;51.880;5.632;2022-08-19T04:49:16;217.45;;;16.15;;
63536;SDS011;49686;51.880;5.632;2022-08-19T04:54:17;61.13;;;13.63;;
63536;SDS011;49686;51.880;5.632;2022-08-19T04:57:05;273.48;;;20.92;;
63536;SDS011;49686;51.880;5.632;2022-08-19T05:02:00;95.30;;;16.88;;
63536;SDS011;49686;51.880;5.632;2022-08-19T05:04:28;84.93;;;16.52;;
63536;SDS011;49686;51.880;5.632;2022-08-19T05:06:55;93.32;;;19.08;;
63536;SDS011;49686;51.880;5.632;2022-08-19T05:09:28;87.63;;;19.65;;
63536;SDS011;49686;51.880;5.632;2022-08-19T05:12:16;83.20;;;20.20;;
63536;SDS011;49686;51.880;5.632;2022-08-19T05:14:43;191.57;;;20.92;;
63536;SDS011;49686;51.880;5.632;2022-08-19T05:17:10;184.57;;;18.15;;
63536;SDS011;49686;51.880;5.632;2022-08-19T05:19:54;90.85;;;18.42;;
63536;SDS011;49686;51.880;5.632;2022-08-19T05:22:21;31.17;;;16.10;;
63536;SDS011;49686;51.880;5.632;2022-08-19T05:24:49;39.75;;;17.17;;
63536;SDS011;49686;51.880;5.632;2022-08-19T05:30:04;21.83;;;11.70;;
63536;SDS011;49686;51.880;5.632;2022-08-19T05:32:31;47.33;;;17.00;;
63536;SDS011;49686;51.880;5.632;2022-08-19T05:34:59;19.27;;;13.48;;
63536;SDS011;49686;51.880;5.632;2022-08-19T05:37:25;41.75;;;15.65;;
63536;SDS011;49686;51.880;5.632;2022-08-19T05:39:54;56.35;;;16.67;;
63536;SDS011;49686;51.880;5.632;2022-08-19T05:42:25;15.93;;;12.75;;
63536;SDS011;49686;51.880;5.632;2022-08-19T05:44:52;22.42;;;16.55;;
63536;SDS011;49686;51.880;5.632;2022-08-19T05:47:20;25.27;;;18.02;;
63536;SDS011;49686;51.880;5.632;2022-08-19T05:49:47;33.10;;;23.05;;
63536;SDS011;49686;51.880;5.632;2022-08-19T05:52:15;31.67;;;21.13;;
63536;SDS011;49686;51.880;5.632;2022-08-19T05:54:44;31.52;;;22.33;;
63536;SDS011;49686;51.880;5.632;2022-08-19T05:57:18;32.40;;;22.42;;
63536;SDS011;49686;51.880;5.632;2022-08-19T05:59:47;30.17;;;20.05;;
63536;SDS011;49686;51.880;5.632;2022-08-19T06:02:19;33.38;;;22.77;;
63536;SDS011;49686;51.880;5.632;2022-08-19T06:04:46;38.20;;;27.10;;
63536;SDS011;49686;51.880;5.632;2022-08-19T06:07:12;38.80;;;25.30;;
63536;SDS011;49686;51.880;5.632;2022-08-19T06:09:40;38.85;;;25.92;;
63536;SDS011;49686;51.880;5.632;2022-08-19T06:12:26;38.65;;;24.80;;
63536;SDS011;49686;51.880;5.632;2022-08-19T06:17:26;41.65;;;26.58;;
63536;SDS011;49686;51.880;5.632;2022-08-19T06:19:54;47.88;;;28.55;;
63536;SDS011;49686;51.880;5.632;2022-08-19T06:22:21;47.20;;;27.55;;
63536;SDS011;49686;51.880;5.632;2022-08-19T06:24:48;47.65;;;29.30;;
63536;SDS011;49686;51.880;5.632;2022-08-19T06:27:15;45.28;;;26.52;;
63536;SDS011;49686;51.880;5.632;2022-08-19T06:29:45;46.35;;;28.13;;
63536;SDS011;49686;51.880;5.632;2022-08-19T06:32:12;57.88;;;31.50;;
63536;SDS011;49686;51.880;5.632;2022-08-19T06:34:41;62.85;;;34.50;;
63536;SDS011;49686;51.880;5.632;2022-08-19T06:37:08;58.25;;;32.83;;
63536;SDS011;49686;51.880;5.632;2022-08-19T06:39:36;48.38;;;28.55;;
63536;SDS011;49686;51.880;5.632;2022-08-19T06:42:05;47.80;;;30.08;;
63536;SDS011;49686;51.880;5.632;2022-08-19T06:44:35;49.58;;;30.13;;
63536;SDS011;49686;51.880;5.632;2022-08-19T06:47:11;45.25;;;28.17;;
63536;SDS011;49686;51.880;5.632;2022-08-19T06:49:54;48.17;;;30.70;;
63536;SDS011;49686;51.880;5.632;2022-08-19T06:52:27;44.60;;;28.98;;
63536;SDS011;49686;51.880;5.632;2022-08-19T06:54:53;54.42;;;33.17;;
63536;SDS011;49686;51.880;5.632;2022-08-19T06:57:22;60.03;;;35.50;;
63536;SDS011;49686;51.880;5.632;2022-08-19T06:59:50;60.85;;;35.15;;
63536;SDS011;49686;51.880;5.632;2022-08-19T07:02:18;55.10;;;31.48;;
63536;SDS011;49686;51.880;5.632;2022-08-19T07:07:14;56.05;;;31.90;;
63536;SDS011;49686;51.880;5.632;2022-08-19T07:09:46;66.15;;;36.20;;
63536;SDS011;49686;51.880;5.632;2022-08-19T07:12:26;62.13;;;35.40;;
63536;SDS011;49686;51.880;5.632;2022-08-19T07:14:56;70.50;;;38.50;;
63536;SDS011;49686;51.880;5.632;2022-08-19T07:17:24;68.72;;;39.78;;
63536;SDS011;49686;51.880;5.632;2022-08-19T07:19:52;71.28;;;40.50;;
63536;SDS011;49686;51.880;5.632;2022-08-19T07:22:20;67.65;;;38.80;;
63536;SDS011;49686;51.880;5.632;2022-08-19T07:24:49;54.63;;;32.83;;
63536;SDS011;49686;51.880;5.632;2022-08-19T07:27:18;61.00;;;36.28;;
63536;SDS011;49686;51.880;5.632;2022-08-19T07:29:50;66.82;;;36.90;;
63536;SDS011;49686;51.880;5.632;2022-08-19T07:32:24;51.58;;;30.58;;
63536;SDS011;49686;51.880;5.632;2022-08-19T07:34:51;65.93;;;36.75;;
63536;SDS011;49686;51.880;5.632;2022-08-19T07:37:18;64.30;;;36.78;;
63536;SDS011;49686;51.880;5.632;2022-08-19T07:39:46;55.53;;;32.10;;
63536;SDS011;49686;51.880;5.632;2022-08-19T07:42:14;62.42;;;34.78;;
63536;SDS011;49686;51.880;5.632;2022-08-19T07:44:41;37.00;;;20.98;;
63536;SDS011;49686;51.880;5.632;2022-08-19T07:47:16;47.88;;;29.23;;
63536;SDS011;49686;51.880;5.632;2022-08-19T07:50:06;48.05;;;27.60;;
63536;SDS011;49686;51.880;5.632;2022-08-19T07:52:36;42.42;;;24.42;;
63536;SDS011;49686;51.880;5.632;2022-08-19T07:55:03;50.47;;;32.00;;
63536;SDS011;49686;51.880;5.632;2022-08-19T07:57:52;53.78;;;31.58;;
63536;SDS011;49686;51.880;5.632;2022-08-19T08:00:19;51.10;;;31.40;;
63536;SDS011;49686;51.880;5.632;2022-08-19T08:02:50;50.53;;;30.48;;
63536;SDS011;49686;51.880;5.632;2022-08-19T08:05:22;49.88;;;30.40;;
63536;SDS011;49686;51.880;5.632;2022-08-19T08:07:49;42.25;;;27.73;;
63536;SDS011;49686;51.880;5.632;2022-08-19T08:10:16;35.20;;;23.13;;
63536;SDS011;49686;51.880;5.632;2022-08-19T08:12:47;44.20;;;27.63;;
63536;SDS011;49686;51.880;5.632;2022-08-19T08:15:34;40.25;;;28.05;;
63536;SDS011;49686;51.880;5.632;2022-08-19T08:18:08;42.67;;;27.92;;
63536;SDS011;49686;51.880;5.632;2022-08-19T08:20:36;41.88;;;27.88;;
63536;SDS011;49686;51.880;5.632;2022-08-19T08:23:04;36.47;;;25.67;;
63536;SDS011;49686;51.880;5.632;2022-08-19T08:25:31;38.67;;;25.90;;
63536;SDS011;49686;51.880;5.632;2022-08-19T08:28:00;33.35;;;22.75;;
63536;SDS011;49686;51.880;5.632;2022-08-19T08:30:28;36.28;;;24.77;;
63536;SDS011;49686;51.880;5.632;2022-08-19T08:32:58;36.13;;;24.30;;
63536;SDS011;49686;51.880;5.632;2022-08-19T08:35:28;30.38;;;19.83;;
63536;SDS011;49686;51.880;5.632;2022-08-19T08:37:56;38.53;;;25.15;;
63536;SDS011;49686;51.880;5.632;2022-08-19T08:40:26;31.45;;;22.08;;
63536;SDS011;49686;51.880;5.632;2022-08-19T08:42:57;36.55;;;26.02;;
63536;SDS011;49686;51.880;5.632;2022-08-19T08:45:27;39.35;;;26.98;;
63536;SDS011;49686;51.880;5.632;2022-08-19T08:50:50;39.40;;;25.83;;
63536;SDS011;49686;51.880;5.632;2022-08-19T08:53:24;46.58;;;26.73;;
63536;SDS011;49686;51.880;5.632;2022-08-19T08:56:00;39.25;;;24.85;;
63536;SDS011;49686;51.880;5.632;2022-08-19T08:58:31;40.63;;;24.30;;
63536;SDS011;49686;51.880;5.632;2022-08-19T09:01:09;37.83;;;23.25;;
63536;SDS011;49686;51.880;5.632;2022-08-19T09:03:37;31.23;;;19.63;;
63536;SDS011;49686;51.880;5.632;2022-08-19T09:06:11;41.58;;;24.65;;
63536;SDS011;49686;51.880;5.632;2022-08-19T09:08:48;30.65;;;18.60;;
63536;SDS011;49686;51.880;5.632;2022-08-19T09:11:24;35.83;;;23.25;;
63536;SDS011;49686;51.880;5.632;2022-08-19T09:14:10;32.00;;;20.23;;
63536;SDS011;49686;51.880;5.632;2022-08-19T09:17:07;26.45;;;16.65;;
63536;SDS011;49686;51.880;5.632;2022-08-19T09:19:34;37.00;;;20.92;;
63536;SDS011;49686;51.880;5.632;2022-08-19T09:22:02;32.53;;;19.98;;
63536;SDS011;49686;51.880;5.632;2022-08-19T09:24:31;32.88;;;19.23;;
63536;SDS011;49686;51.880;5.632;2022-08-19T09:26:57;34.13;;;20.08;;
63536;SDS011;49686;51.880;5.632;2022-08-19T09:29:32;33.50;;;20.55;;
63536;SDS011;49686;51.880;5.632;2022-08-19T09:31:59;28.70;;;17.63;;
63536;SDS011;49686;51.880;5.632;2022-08-19T09:34:26;36.67;;;20.73;;
63536;SDS011;49686;51.880;5.632;2022-08-19T09:36:53;30.85;;;19.88;;
63536;SDS011;49686;51.880;5.632;2022-08-19T09:39:20;26.73;;;18.77;;
63536;SDS011;49686;51.880;5.632;2022-08-19T09:41:50;30.20;;;18.40;;
63536;SDS011;49686;51.880;5.632;2022-08-19T09:44:18;27.30;;;17.42;;
63536;SDS011;49686;51.880;5.632;2022-08-19T09:46:45;25.30;;;17.13;;
63536;SDS011;49686;51.880;5.632;2022-08-19T09:49:12;25.77;;;16.30;;
63536;SDS011;49686;51.880;5.632;2022-08-19T09:51:40;29.33;;;19.00;;
63536;SDS011;49686;51.880;5.632;2022-08-19T09:54:07;20.23;;;13.85;;
63536;SDS011;49686;51.880;5.632;2022-08-19T09:56:36;21.88;;;13.18;;
63536;SDS011;49686;51.880;5.632;2022-08-19T09:59:05;26.60;;;17.75;;
63536;SDS011;49686;51.880;5.632;2022-08-19T10:01:32;25.08;;;14.57;;
63536;SDS011;49686;51.880;5.632;2022-08-19T10:03:59;30.10;;;18.35;;
63536;SDS011;49686;51.880;5.632;2022-08-19T10:06:33;27.88;;;18.00;;
63536;SDS011;49686;51.880;5.632;2022-08-19T10:09:12;20.00;;;14.25;;
63536;SDS011;49686;51.880;5.632;2022-08-19T10:11:42;24.65;;;17.30;;
63536;SDS011;49686;51.880;5.632;2022-08-19T10:14:21;19.17;;;13.98;;
63536;SDS011;49686;51.880;5.632;2022-08-19T10:16:49;23.85;;;16.38;;
63536;SDS011;49686;51.880;5.632;2022-08-19T10:19:15;21.15;;;16.73;;
63536;SDS011;49686;51.880;5.632;2022-08-19T10:21:52;22.90;;;16.50;;
63536;SDS011;49686;51.880;5.632;2022-08-19T10:24:19;26.10;;;17.33;;
63536;SDS011;49686;51.880;5.632;2022-08-19T10:26:46;24.80;;;16.10;;
63536;SDS011;49686;51.880;5.632;2022-08-19T10:29:13;22.15;;;13.25;;
63536;SDS011;49686;51.880;5.632;2022-08-19T10:32:00;22.40;;;16.17;;
63536;SDS011;49686;51.880;5.632;2022-08-19T10:34:29;20.27;;;15.10;;
63536;SDS011;49686;51.880;5.632;2022-08-19T10:36:59;22.63;;;13.80;;
63536;SDS011;49686;51.880;5.632;2022-08-19T10:39:27;19.60;;;14.43;;
63536;SDS011;49686;51.880;5.632;2022-08-19T10:41:56;21.60;;;15.27;;
63536;SDS011;49686;51.880;5.632;2022-08-19T10:44:24;21.85;;;15.57;;
63536;SDS011;49686;51.880;5.632;2022-08-19T10:47:03;22.80;;;16.58;;
63536;SDS011;49686;51.880;5.632;2022-08-19T10:49:51;23.55;;;15.13;;
63536;SDS011;49686;51.880;5.632;2022-08-19T10:52:21;20.38;;;14.98;;
63536;SDS011;49686;51.880;5.632;2022-08-19T10:54:58;23.10;;;16.40;;
63536;SDS011;49686;51.880;5.632;2022-08-19T10:57:31;26.15;;;14.68;;
63536;SDS011;49686;51.880;5.632;2022-08-19T11:00:18;22.77;;;15.85;;
63536;SDS011;49686;51.880;5.632;2022-08-19T11:02:47;20.10;;;14.13;;
63536;SDS011;49686;51.880;5.632;2022-08-19T11:05:14;25.23;;;17.92;;
63536;SDS011;49686;51.880;5.632;2022-08-19T11:07:42;19.63;;;14.50;;
63536;SDS011;49686;51.880;5.632;2022-08-19T11:10:11;26.65;;;17.45;;
63536;SDS011;49686;51.880;5.632;2022-08-19T11:12:46;27.65;;;18.25;;
63536;SDS011;49686;51.880;5.632;2022-08-19T11:15:13;25.52;;;16.40;;
63536;SDS011;49686;51.880;5.632;2022-08-19T11:17:40;25.98;;;18.17;;
63536;SDS011;49686;51.880;5.632;2022-08-19T11:20:09;18.55;;;11.77;;
63536;SDS011;49686;51.880;5.632;2022-08-19T11:22:38;24.98;;;18.98;;
63536;SDS011;49686;51.880;5.632;2022-08-19T11:25:07;26.05;;;18.60;;
63536;SDS011;49686;51.880;5.632;2022-08-19T11:27:37;24.08;;;18.55;;
63536;SDS011;49686;51.880;5.632;2022-08-19T11:30:05;21.30;;;15.80;;
63536;SDS011;49686;51.880;5.632;2022-08-19T11:32:38;27.08;;;20.23;;
63536;SDS011;49686;51.880;5.632;2022-08-19T11:35:05;28.60;;;21.52;;
63536;SDS011;49686;51.880;5.632;2022-08-19T11:37:34;30.25;;;20.70;;
63536;SDS011;49686;51.880;5.632;2022-08-19T11:40:03;22.88;;;17.73;;
63536;SDS011;49686;51.880;5.632;2022-08-19T11:42:32;23.23;;;18.25;;
63536;SDS011;49686;51.880;5.632;2022-08-19T11:44:59;25.77;;;18.88;;
63536;SDS011;49686;51.880;5.632;2022-08-19T11:47:27;24.95;;;21.42;;
63536;SDS011;49686;51.880;5.632;2022-08-19T11:49:55;27.90;;;22.67;;
63536;SDS011;49686;51.880;5.632;2022-08-19T11:52:22;25.33;;;19.10;;
63536;SDS011;49686;51.880;5.632;2022-08-19T11:54:50;20.17;;;16.33;;
63536;SDS011;49686;51.880;5.632;2022-08-19T11:57:18;23.80;;;17.10;;
63536;SDS011;49686;51.880;5.632;2022-08-19T11:59:47;27.20;;;20.88;;
63536;SDS011;49686;51.880;5.632;2022-08-19T12:02:15;18.63;;;14.30;;
63536;SDS011;49686;51.880;5.632;2022-08-19T12:04:42;21.98;;;18.17;;
63536;SDS011;49686;51.880;5.632;2022-08-19T12:07:09;23.98;;;19.60;;
63536;SDS011;49686;51.880;5.632;2022-08-19T12:09:36;16.08;;;12.45;;
63536;SDS011;49686;51.880;5.632;2022-08-19T12:12:09;25.15;;;19.70;;
63536;SDS011;49686;51.880;5.632;2022-08-19T12:14:37;22.73;;;18.33;;
63536;SDS011;49686;51.880;5.632;2022-08-19T12:17:04;20.48;;;17.35;;
63536;SDS011;49686;51.880;5.632;2022-08-19T12:19:31;25.67;;;18.95;;
63536;SDS011;49686;51.880;5.632;2022-08-19T12:21:58;26.83;;;19.42;;
63536;SDS011;49686;51.880;5.632;2022-08-19T12:24:26;23.20;;;20.17;;
63536;SDS011;49686;51.880;5.632;2022-08-19T12:26:53;25.95;;;18.42;;
63536;SDS011;49686;51.880;5.632;2022-08-19T12:29:27;19.80;;;15.90;;
63536;SDS011;49686;51.880;5.632;2022-08-19T12:31:55;22.40;;;19.67;;
63536;SDS011;49686;51.880;5.632;2022-08-19T12:34:22;25.60;;;20.08;;
63536;SDS011;49686;51.880;5.632;2022-08-19T12:36:49;28.10;;;19.35;;
63536;SDS011;49686;51.880;5.632;2022-08-19T12:39:17;22.08;;;19.10;;
63536;SDS011;49686;51.880;5.632;2022-08-19T12:41:43;22.45;;;18.00;;
63536;SDS011;49686;51.880;5.632;2022-08-19T12:44:20;22.35;;;15.77;;
63536;SDS011;49686;51.880;5.632;2022-08-19T12:46:58;23.98;;;19.50;;
63536;SDS011;49686;51.880;5.632;2022-08-19T12:49:27;22.08;;;16.95;;
63536;SDS011;49686;51.880;5.632;2022-08-19T12:52:13;25.73;;;16.65;;
63536;SDS011;49686;51.880;5.632;2022-08-19T12:57:11;24.38;;;17.98;;
63536;SDS011;49686;51.880;5.632;2022-08-19T12:59:38;24.52;;;19.05;;
63536;SDS011;49686;51.880;5.632;2022-08-19T13:02:07;22.48;;;16.58;;
63536;SDS011;49686;51.880;5.632;2022-08-19T13:07:01;23.33;;;18.30;;
63536;SDS011;49686;51.880;5.632;2022-08-19T13:09:29;21.08;;;17.40;;
63536;SDS011;49686;51.880;5.632;2022-08-19T13:11:56;22.75;;;18.63;;
63536;SDS011;49686;51.880;5.632;2022-08-19T13:14:23;24.60;;;18.50;;
63536;SDS011;49686;51.880;5.632;2022-08-19T13:16:52;24.73;;;18.73;;
63536;SDS011;49686;51.880;5.632;2022-08-19T13:19:21;25.20;;;20.00;;
63536;SDS011;49686;51.880;5.632;2022-08-19T13:21:48;25.35;;;18.60;;
63536;SDS011;49686;51.880;5.632;2022-08-19T13:24:25;23.00;;;19.83;;
63536;SDS011;49686;51.880;5.632;2022-08-19T13:26:58;19.17;;;14.52;;
63536;SDS011;49686;51.880;5.632;2022-08-19T13:29:26;23.48;;;16.50;;
63536;SDS011;49686;51.880;5.632;2022-08-19T13:31:53;26.60;;;19.73;;
63536;SDS011;49686;51.880;5.632;2022-08-19T13:34:26;23.92;;;19.00;;
63536;SDS011;49686;51.880;5.632;2022-08-19T13:36:57;19.42;;;15.55;;
63536;SDS011;49686;51.880;5.632;2022-08-19T13:39:24;23.13;;;17.92;;
63536;SDS011;49686;51.880;5.632;2022-08-19T13:41:51;21.25;;;13.38;;
63536;SDS011;49686;51.880;5.632;2022-08-19T13:44:19;23.55;;;17.70;;
63536;SDS011;49686;51.880;5.632;2022-08-19T13:46:46;22.52;;;17.13;;
63536;SDS011;49686;51.880;5.632;2022-08-19T13:49:14;23.75;;;17.52;;
63536;SDS011;49686;51.880;5.632;2022-08-19T13:51:43;22.67;;;16.60;;
63536;SDS011;49686;51.880;5.632;2022-08-19T13:54:10;22.38;;;17.08;;
63536;SDS011;49686;51.880;5.632;2022-08-19T13:56:39;16.20;;;13.18;;
63536;SDS011;49686;51.880;5.632;2022-08-19T13:59:10;16.02;;;12.20;;
63536;SDS011;49686;51.880;5.632;2022-08-19T14:01:38;21.05;;;14.95;;
63536;SDS011;49686;51.880;5.632;2022-08-19T14:04:05;19.23;;;14.38;;
63536;SDS011;49686;51.880;5.632;2022-08-19T14:06:33;14.02;;;9.30;;
63536;SDS011;49686;51.880;5.632;2022-08-19T14:09:02;12.85;;;8.98;;
63536;SDS011;49686;51.880;5.632;2022-08-19T14:13:56;11.90;;;8.80;;
63536;SDS011;49686;51.880;5.632;2022-08-19T14:16:23;8.25;;;6.22;;
63536;SDS011;49686;51.880;5.632;2022-08-19T14:18:50;10.73;;;8.35;;
63536;SDS011;49686;51.880;5.632;2022-08-19T14:21:19;14.32;;;9.32;;
63536;SDS011;49686;51.880;5.632;2022-08-19T14:23:49;15.45;;;11.48;;
63536;SDS011;49686;51.880;5.632;2022-08-19T14:26:18;19.45;;;13.52;;
63536;SDS011;49686;51.880;5.632;2022-08-19T14:28:46;23.67;;;17.98;;
63536;SDS011;49686;51.880;5.632;2022-08-19T14:31:14;18.75;;;14.45;;
63536;SDS011;49686;51.880;5.632;2022-08-19T14:33:43;21.38;;;15.60;;
63536;SDS011;49686;51.880;5.632;2022-08-19T14:36:10;15.70;;;11.75;;
63536;SDS011;49686;51.880;5.632;2022-08-19T14:38:37;16.38;;;10.93;;
63536;SDS011;49686;51.880;5.632;2022-08-19T14:41:11;11.27;;;8.88;;
63536;SDS011;49686;51.880;5.632;2022-08-19T14:43:42;11.85;;;7.78;;
63536;SDS011;49686;51.880;5.632;2022-08-19T14:46:09;11.18;;;8.68;;
63536;SDS011;49686;51.880;5.632;2022-08-19T14:48:36;12.18;;;8.70;;
63536;SDS011;49686;51.880;5.632;2022-08-19T14:51:07;12.85;;;8.60;;
63536;SDS011;49686;51.880;5.632;2022-08-19T14:53:34;9.90;;;6.90;;
63536;SDS011;49686;51.880;5.632;2022-08-19T14:56:01;11.10;;;7.47;;
63536;SDS011;49686;51.880;5.632;2022-08-19T14:58:35;4.85;;;4.30;;
63536;SDS011;49686;51.880;5.632;2022-08-19T15:01:06;7.78;;;2.83;;
63536;SDS011;49686;51.880;5.632;2022-08-19T15:03:33;3.15;;;2.00;;
63536;SDS011;49686;51.880;5.632;2022-08-19T15:06:02;2.60;;;2.40;;
63536;SDS011;49686;51.880;5.632;2022-08-19T15:08:31;11.32;;;2.95;;
63536;SDS011;49686;51.880;5.632;2022-08-19T15:11:01;4.80;;;2.45;;
63536;SDS011;49686;51.880;5.632;2022-08-19T15:13:28;11.35;;;3.08;;